Terminal Aerodrome Forecast
Issued by NWS St Louis, MO

Home | Current Version | Previous Version | Text Only | Print | Product List | Glossary On
Versions: 1 2 3 4 5 6 7 8 9 10 11 12 13 14 15
000
FTUS43 KLSX 312300
TAFCOU
TAF
KCOU 312320Z 0100/0124 12009KT 4SM -RA OVC024
     FM010600 12008KT 3SM -RA BR OVC007
     FM011900 30013KT 3SM -RA OVC007=

USA.gov is the U.S. government's official web portal to all federal, state and local government web resources and services.